Time;durP1;ratioP1;P1;durP2;ratioP2;P2;SDS_P1;SDS_P2;PMS_P1;PMS_P2;Temp;Humidity;BMP_temperature;BMP_pressure;BME280_temperature;BME280_humidity;BME280_pressure;Samples;Min_cycle;Max_cycle;Signal;HPM_P1;HPM_P2
2021/08/02 00:01:45;;;;;;;5.30;3.40;;;14.60;99.90;;;;;;5033414;28;20179;-78
2021/08/02 00:04:10;;;;;;;4.10;3.30;;;14.60;99.90;;;;;;5017073;28;20213;-78
2021/08/02 00:06:42;;;;;;;5.10;3.43;;;14.50;99.90;;;;;;5032896;28;20621;-78
2021/08/02 00:09:08;;;;;;;4.20;3.60;;;14.50;99.90;;;;;;5033004;28;20211;-78
2021/08/02 00:11:57;;;;;;;6.97;3.30;;;14.50;99.90;;;;;;5017550;28;20175;-78
2021/08/02 00:14:23;;;;;;;7.53;3.97;;;14.50;99.90;;;;;;5036107;28;20262;-78
2021/08/02 00:16:49;;;;;;;4.47;3.57;;;14.50;99.90;;;;;;5018173;28;20299;-78
2021/08/02 00:19:14;;;;;;;5.77;3.50;;;14.40;99.90;;;;;;5017244;28;20228;-78
2021/08/02 00:21:41;;;;;;;5.53;3.60;;;14.40;99.90;;;;;;5016902;28;20642;-78
2021/08/02 00:24:07;;;;;;;5.87;3.60;;;14.40;99.90;;;;;;5033576;28;20201;-78
2021/08/02 00:26:32;;;;;;;5.17;3.53;;;14.30;99.90;;;;;;5016714;28;20632;-78
2021/08/02 00:28:58;;;;;;;5.37;3.80;;;14.30;99.90;;;;;;5033197;28;20211;-78
2021/08/02 00:31:23;;;;;;;6.87;3.80;;;14.30;99.90;;;;;;5016436;28;20182;-78
2021/08/02 00:33:49;;;;;;;7.67;3.70;;;14.30;99.90;;;;;;5033111;28;20244;-78
2021/08/02 00:36:23;;;;;;;6.67;3.77;;;14.20;99.90;;;;;;5015911;28;20179;-78
2021/08/02 00:39:13;;;;;;;7.50;3.80;;;14.20;99.90;;;;;;5032897;28;20627;-78
2021/08/02 00:42:06;;;;;;;6.47;4.00;;;14.20;99.90;;;;;;5022883;28;20187;-78
2021/08/02 00:44:59;;;;;;;5.47;3.80;;;14.20;99.90;;;;;;5033820;28;20175;-78
2021/08/02 00:47:27;;;;;;;6.43;4.20;;;14.10;99.90;;;;;;5032709;28;20256;-78
2021/08/02 00:50:05;;;;;;;4.77;4.23;;;14.10;99.90;;;;;;5032402;28;20215;-78
2021/08/02 00:52:31;;;;;;;5.50;3.90;;;14.10;99.90;;;;;;5032739;28;20614;-78
2021/08/02 00:54:58;;;;;;;6.83;3.90;;;14.10;99.90;;;;;;5032690;28;20174;-78
2021/08/02 00:57:24;;;;;;;5.13;3.63;;;14.10;99.90;;;;;;5032277;28;20201;-78
2021/08/02 00:59:50;;;;;;;6.57;3.60;;;14.00;99.90;;;;;;5032021;28;20678;-78
2021/08/02 01:02:16;;;;;;;5.50;3.67;;;14.10;99.90;;;;;;5032228;28;20689;-78
2021/08/02 01:04:42;;;;;;;6.20;3.70;;;14.00;99.90;;;;;;5032555;28;20183;-78
2021/08/02 01:07:10;;;;;;;5.83;3.80;;;14.10;99.90;;;;;;5016302;28;20190;-78
2021/08/02 01:09:37;;;;;;;6.83;3.80;;;14.00;99.90;;;;;;5032476;28;20214;-78
2021/08/02 01:12:03;;;;;;;5.50;3.83;;;14.00;99.90;;;;;;5016090;28;20560;-78
2021/08/02 01:14:28;;;;;;;6.77;4.00;;;13.90;99.90;;;;;;5032140;28;20179;-78
2021/08/02 01:16:54;;;;;;;7.70;4.20;;;13.90;99.90;;;;;;5015821;28;20217;-78
2021/08/02 01:19:19;;;;;;;5.53;4.17;;;13.90;99.90;;;;;;5015372;28;20218;-78
2021/08/02 01:21:45;;;;;;;6.67;4.23;;;13.90;99.90;;;;;;5032143;28;20187;-78
2021/08/02 01:24:12;;;;;;;7.13;4.20;;;13.80;99.90;;;;;;5032469;28;20261;-78
2021/08/02 01:26:43;;;;;;;7.13;4.10;;;13.80;99.90;;;;;;5015947;28;20245;-78
2021/08/02 01:29:47;;;;;;;6.37;4.50;;;13.70;99.90;;;;;;5033460;28;20214;-78
2021/08/02 01:32:16;;;;;;;6.27;4.40;;;13.70;99.90;;;;;;5032819;28;20179;-78
2021/08/02 01:34:42;;;;;;;6.47;4.07;;;13.70;99.90;;;;;;5015598;28;20210;-78
2021/08/02 01:37:07;;;;;;;6.70;4.33;;;13.70;99.90;;;;;;5015272;28;20226;-78
2021/08/02 01:39:34;;;;;;;5.30;4.10;;;13.60;99.90;;;;;;5032566;28;20206;-78
2021/08/02 01:42:02;;;;;;;6.43;4.70;;;13.60;99.90;;;;;;5032400;28;20179;-79
2021/08/02 01:44:28;;;;;;;6.67;4.50;;;13.60;99.90;;;;;;5016129;28;20187;-78
2021/08/02 01:47:08;;;;;;;5.30;4.10;;;13.60;99.90;;;;;;5032126;28;20244;-78
2021/08/02 01:49:37;;;;;;;5.97;4.67;;;13.60;99.90;;;;;;5035722;28;20210;-78
2021/08/02 01:52:03;;;;;;;6.03;4.13;;;13.70;99.90;;;;;;5019383;28;20194;-78
2021/08/02 01:55:01;;;;;;;8.10;5.20;;;13.70;99.90;;;;;;5019099;28;20179;-78
2021/08/02 01:57:38;;;;;;;6.90;4.60;;;13.70;99.90;;;;;;5038468;28;20183;-78
2021/08/02 02:00:13;;;;;;;7.77;4.90;;;13.80;99.90;;;;;;5035363;28;20199;-78
2021/08/02 02:02:39;;;;;;;6.97;4.97;;;13.80;99.90;;;;;;5035935;28;20233;-78
2021/08/02 02:05:13;;;;;;;6.97;4.83;;;13.80;99.90;;;;;;5018897;28;20263;-78
2021/08/02 02:08:00;;;;;;;7.10;4.73;;;13.80;99.90;;;;;;5035401;28;20179;-78
2021/08/02 02:10:25;;;;;;;8.20;4.57;;;13.80;99.90;;;;;;5035201;28;20210;-78
2021/08/02 02:12:52;;;;;;;7.60;5.00;;;13.80;99.90;;;;;;5034961;28;20185;-78
2021/08/02 02:15:17;;;;;;;9.83;5.00;;;13.80;99.90;;;;;;5018215;28;20254;-78
2021/08/02 02:17:43;;;;;;;7.17;5.03;;;13.80;99.90;;;;;;5018408;28;20210;-78
2021/08/02 02:20:09;;;;;;;7.20;5.20;;;13.80;99.90;;;;;;5034890;28;20213;-78
2021/08/02 02:22:36;;;;;;;6.83;5.17;;;13.80;99.90;;;;;;5034761;28;21155;-78
2021/08/02 02:25:01;;;;;;;6.87;5.10;;;13.80;99.90;;;;;;5020417;28;20216;-78
2021/08/02 02:27:27;;;;;;;8.47;5.27;;;13.80;99.90;;;;;;5019636;28;20185;-78
2021/08/02 02:29:53;;;;;;;6.23;5.00;;;13.80;99.90;;;;;;5019694;28;20705;-79
2021/08/02 02:32:18;;;;;;;8.50;5.53;;;13.80;99.90;;;;;;5036831;28;20713;-79
2021/08/02 02:34:44;;;;;;;6.53;5.20;;;13.70;99.90;;;;;;5036671;28;20183;-78
2021/08/02 02:37:09;;;;;;;5.53;4.80;;;13.70;99.90;;;;;;5037018;28;20185;-78
2021/08/02 02:39:35;;;;;;;7.80;4.97;;;13.70;99.90;;;;;;5036564;28;20194;-79
2021/08/02 02:42:01;;;;;;;6.60;4.80;;;13.70;99.90;;;;;;5020533;28;20182;-79
2021/08/02 02:44:27;;;;;;;6.80;5.10;;;13.60;99.90;;;;;;5036951;28;20595;-79
2021/08/02 02:46:52;;;;;;;6.43;5.50;;;13.60;99.90;;;;;;5036839;28;20171;-79
2021/08/02 02:49:18;;;;;;;9.60;5.63;;;13.60;99.90;;;;;;5036540;28;20289;-79
2021/08/02 02:51:43;;;;;;;7.27;5.47;;;13.60;99.90;;;;;;5035468;28;20182;-79
2021/08/02 02:54:09;;;;;;;8.43;5.63;;;13.60;99.90;;;;;;5019924;28;20175;-79
2021/08/02 02:56:35;;;;;;;12.27;6.00;;;13.60;99.90;;;;;;5020098;28;20186;-78
2021/08/02 02:59:00;;;;;;;7.20;5.30;;;13.60;99.90;;;;;;5036395;28;20195;-78
2021/08/02 03:01:30;;;;;;;8.60;4.70;;;13.60;99.90;;;;;;5020406;28;20245;-78
2021/08/02 03:03:57;;;;;;;7.77;4.97;;;13.60;99.90;;;;;;5041499;28;20199;-79
2021/08/02 03:06:27;;;;;;;9.07;5.57;;;13.70;99.90;;;;;;5038482;28;20175;-79
2021/08/02 03:08:52;;;;;;;7.80;5.33;;;13.60;99.90;;;;;;5038266;28;20256;-78
2021/08/02 03:11:18;;;;;;;9.17;4.90;;;13.60;99.90;;;;;;5016961;28;20215;-78
2021/08/02 03:13:44;;;;;;;8.17;5.27;;;13.60;99.90;;;;;;5001522;28;20180;-79
2021/08/02 03:16:09;;;;;;;10.87;5.30;;;13.60;99.90;;;;;;5000912;28;20583;-79
2021/08/02 03:18:35;;;;;;;7.80;5.13;;;13.60;99.90;;;;;;5016844;28;20211;-79
2021/08/02 03:21:01;;;;;;;6.23;5.07;;;13.60;99.90;;;;;;5000436;28;20255;-78
2021/08/02 03:23:42;;;;;;;8.63;5.30;;;13.50;99.90;;;;;;5000176;28;20195;-78
2021/08/02 03:26:16;;;;;;;8.23;5.27;;;13.50;99.90;;;;;;5035279;28;20194;-79
2021/08/02 03:28:47;;;;;;;6.83;5.43;;;13.60;99.90;;;;;;5002846;28;20735;-79
2021/08/02 03:31:17;;;;;;;7.33;5.63;;;13.50;99.90;;;;;;5021145;28;20265;-78
2021/08/02 03:33:42;;;;;;;6.43;5.70;;;13.50;99.90;;;;;;5004060;28;20601;-78
2021/08/02 03:36:11;;;;;;;9.67;5.90;;;13.50;99.90;;;;;;5019687;28;20171;-79
2021/08/02 03:38:37;;;;;;;8.90;5.97;;;13.50;99.90;;;;;;5019546;28;20222;-77
2021/08/02 03:41:04;;;;;;;9.60;5.53;;;13.50;99.90;;;;;;5004070;28;20182;-79
2021/08/02 03:43:30;;;;;;;7.33;5.63;;;13.50;99.90;;;;;;5036732;28;20261;-78
2021/08/02 03:45:55;;;;;;;8.10;5.73;;;13.60;99.90;;;;;;5019582;28;20206;-78
2021/08/02 03:48:23;;;;;;;8.57;5.97;;;13.60;99.90;;;;;;5021801;28;20287;-78
2021/08/02 03:50:48;;;;;;;8.70;6.03;;;13.60;99.90;;;;;;5020354;28;20171;-78
2021/08/02 03:53:14;;;;;;;6.47;5.50;;;13.60;99.90;;;;;;5004634;28;20656;-78
2021/08/02 03:55:39;;;;;;;7.67;5.50;;;13.70;99.90;;;;;;5020696;28;20170;-79
2021/08/02 03:58:05;;;;;;;10.43;5.20;;;13.70;99.90;;;;;;5004538;28;20179;-79
2021/08/02 04:00:31;;;;;;;8.03;5.23;;;13.70;99.90;;;;;;5023022;28;20206;-79
2021/08/02 04:02:57;;;;;;;9.73;5.30;;;13.70;99.90;;;;;;5019452;28;20178;-79
2021/08/02 04:05:22;;;;;;;6.70;4.77;;;13.80;99.90;;;;;;5001034;28;20175;-79
2021/08/02 04:07:48;;;;;;;6.97;4.77;;;13.80;99.90;;;;;;5019047;28;20273;-79
2021/08/02 04:10:13;;;;;;;9.43;4.80;;;13.80;99.90;;;;;;5032702;28;20195;-78
2021/08/02 04:12:39;;;;;;;7.57;4.70;;;13.80;99.90;;;;;;5000416;28;20213;-78
2021/08/02 04:15:07;;;;;;;10.13;4.63;;;13.90;99.90;;;;;;5016679;28;20278;-78
2021/08/02 04:17:32;;;;;;;7.60;4.23;;;13.90;99.90;;;;;;5000504;28;20179;-78
2021/08/02 04:19:58;;;;;;;6.63;4.40;;;13.90;99.90;;;;;;5016266;28;20228;-78
2021/08/02 04:22:24;;;;;;;9.50;4.97;;;13.90;99.90;;;;;;5016075;28;20246;-78
2021/08/02 04:24:49;;;;;;;9.40;5.00;;;13.90;99.90;;;;;;5026902;28;20237;-78
2021/08/02 04:27:15;;;;;;;8.23;4.27;;;14.00;99.90;;;;;;4998474;28;20605;-78
2021/08/02 04:29:41;;;;;;;6.87;4.50;;;13.90;99.90;;;;;;5011309;28;20691;-78
2021/08/02 04:32:07;;;;;;;5.00;4.43;;;13.90;99.90;;;;;;5034223;28;20233;-78
2021/08/02 04:34:32;;;;;;;6.13;4.53;;;13.90;99.90;;;;;;5001716;28;20179;-78
2021/08/02 04:36:58;;;;;;;7.13;4.30;;;13.90;99.90;;;;;;5017492;28;20243;-79
2021/08/02 04:39:24;;;;;;;8.50;4.67;;;13.90;99.90;;;;;;5034429;28;20205;-78
2021/08/02 04:41:49;;;;;;;6.30;4.40;;;13.90;99.90;;;;;;5017265;28;20185;-78
2021/08/02 04:44:15;;;;;;;7.53;4.17;;;13.90;99.90;;;;;;5034016;28;20179;-78
2021/08/02 04:46:40;;;;;;;5.07;4.20;;;14.00;99.90;;;;;;5000876;28;20194;-78
2021/08/02 04:49:06;;;;;;;9.53;4.80;;;14.00;99.90;;;;;;4998885;28;20292;-79
2021/08/02 04:51:31;;;;;;;4.83;4.10;;;14.00;99.90;;;;;;5000384;28;20179;-79
2021/08/02 04:53:57;;;;;;;9.43;4.43;;;14.00;99.90;;;;;;4996481;28;20282;-78
2021/08/02 04:56:22;;;;;;;5.83;3.93;;;14.00;99.90;;;;;;4997739;28;20175;-77
2021/08/02 04:58:48;;;;;;;8.33;4.30;;;14.00;99.90;;;;;;4999183;28;20203;-78
2021/08/02 05:01:14;;;;;;;10.00;4.13;;;14.00;99.90;;;;;;4999024;28;20302;-78
2021/08/02 05:03:39;;;;;;;7.43;4.23;;;14.10;99.90;;;;;;4994867;28;20172;-77
2021/08/02 05:06:05;;;;;;;7.80;3.63;;;14.10;99.90;;;;;;5011372;28;20176;-77
2021/08/02 05:08:30;;;;;;;7.57;4.03;;;14.10;99.90;;;;;;5011094;28;20215;-76
2021/08/02 05:10:56;;;;;;;5.53;3.90;;;14.10;99.90;;;;;;5011638;28;20650;-76
2021/08/02 05:13:22;;;;;;;5.50;4.17;;;14.20;99.90;;;;;;5014244;28;20175;-76
2021/08/02 05:15:47;;;;;;;5.40;3.67;;;14.20;99.90;;;;;;5013917;28;20775;-76
2021/08/02 05:18:14;;;;;;;8.83;3.93;;;14.20;99.90;;;;;;5029657;28;20179;-76
2021/08/02 05:20:40;;;;;;;7.87;3.83;;;14.30;99.90;;;;;;5014771;28;20183;-75
2021/08/02 05:23:06;;;;;;;6.13;3.50;;;14.30;99.90;;;;;;5034204;28;20182;-76
2021/08/02 05:25:32;;;;;;;6.37;4.00;;;14.30;99.90;;;;;;5035619;28;20183;-76
2021/08/02 05:27:57;;;;;;;6.10;3.80;;;14.30;99.90;;;;;;5033996;28;20183;-76
2021/08/02 05:30:23;;;;;;;5.90;3.57;;;14.30;99.90;;;;;;5038452;28;20285;-76
2021/08/02 05:32:48;;;;;;;9.20;4.20;;;14.40;99.90;;;;;;5054193;28;20258;-76
2021/08/02 05:35:14;;;;;;;5.30;4.13;;;14.40;99.90;;;;;;5055971;28;20182;-77
2021/08/02 05:37:40;;;;;;;7.90;3.93;;;14.40;99.90;;;;;;5022699;28;20182;-77
2021/08/02 05:40:06;;;;;;;5.20;3.27;;;14.40;99.90;;;;;;5038925;28;20201;-77
2021/08/02 05:42:31;;;;;;;8.70;4.00;;;14.50;99.90;;;;;;5021837;28;20178;-77
2021/08/02 05:44:57;;;;;;;6.57;4.00;;;14.50;99.90;;;;;;5021945;28;20596;-77
2021/08/02 05:47:23;;;;;;;6.63;3.40;;;14.50;99.90;;;;;;5022825;28;20244;-77
2021/08/02 05:49:48;;;;;;;6.10;3.23;;;14.50;99.90;;;;;;5013177;28;20233;-77
2021/08/02 05:52:14;;;;;;;8.47;3.83;;;14.50;99.90;;;;;;5017224;28;20197;-77
2021/08/02 05:54:39;;;;;;;6.20;3.40;;;14.60;99.90;;;;;;5034665;28;20167;-77
2021/08/02 05:57:05;;;;;;;7.23;3.80;;;14.60;99.90;;;;;;5035707;28;20657;-77
2021/08/02 05:59:30;;;;;;;6.43;3.63;;;14.60;99.90;;;;;;5036069;28;20269;-77
2021/08/02 06:01:58;;;;;;;7.60;4.10;;;14.60;99.90;;;;;;5018269;28;20276;-78
2021/08/02 06:04:25;;;;;;;8.77;3.70;;;14.60;99.90;;;;;;5035255;28;20257;-78
2021/08/02 06:06:53;;;;;;;8.70;4.20;;;14.60;99.90;;;;;;5035783;28;20623;-77
2021/08/02 06:09:20;;;;;;;5.10;3.50;;;14.60;99.90;;;;;;4999027;28;20294;-76
2021/08/02 06:11:45;;;;;;;7.00;3.90;;;14.60;99.90;;;;;;5016672;28;20192;-76
2021/08/02 06:14:11;;;;;;;7.77;3.90;;;14.70;99.90;;;;;;5000594;28;20183;-77
2021/08/02 06:16:37;;;;;;;6.37;3.50;;;14.70;99.90;;;;;;5017472;28;20231;-77
2021/08/02 06:19:02;;;;;;;11.30;4.30;;;14.70;99.90;;;;;;4999189;28;20214;-76
2021/08/02 06:21:28;;;;;;;10.17;3.60;;;14.80;99.90;;;;;;4999992;28;20509;-76
2021/08/02 06:23:53;;;;;;;6.27;3.43;;;14.80;99.90;;;;;;4983461;28;20238;-77
2021/08/02 06:26:20;;;;;;;5.40;3.70;;;14.90;99.90;;;;;;5023337;28;20186;-77
2021/08/02 06:28:45;;;;;;;7.73;3.27;;;14.90;99.90;;;;;;5033754;28;20210;-78
2021/08/02 06:31:11;;;;;;;4.80;3.20;;;15.00;99.90;;;;;;5018219;28;20167;-79
2021/08/02 06:33:37;;;;;;;5.63;3.40;;;15.10;99.90;;;;;;5018669;28;20277;-78
2021/08/02 06:36:02;;;;;;;5.17;3.50;;;15.10;99.90;;;;;;5018836;28;20214;-79
2021/08/02 06:38:32;;;;;;;9.20;4.17;;;15.00;99.90;;;;;;5020076;28;20238;-78
2021/08/02 06:40:58;;;;;;;6.87;3.80;;;15.10;99.90;;;;;;5002819;28;20221;-78
2021/08/02 06:43:24;;;;;;;5.80;3.63;;;15.00;99.90;;;;;;5002694;28;20183;-78
2021/08/02 06:45:49;;;;;;;7.77;3.83;;;15.10;99.90;;;;;;5035071;28;20186;-79
2021/08/02 06:48:15;;;;;;;8.47;3.90;;;15.10;99.90;;;;;;5003197;28;20198;-80
2021/08/02 06:50:40;;;;;;;7.80;3.60;;;15.10;99.90;;;;;;5017120;28;20182;-78
2021/08/02 06:53:06;;;;;;;7.67;4.10;;;15.10;99.90;;;;;;5034165;28;20237;-78
2021/08/02 06:55:31;;;;;;;5.17;3.60;;;15.20;99.90;;;;;;5034610;28;20175;-78
2021/08/02 06:57:57;;;;;;;7.63;4.10;;;15.20;99.90;;;;;;5033705;28;20305;-78
2021/08/02 07:00:23;;;;;;;5.33;3.90;;;15.30;99.90;;;;;;5017873;28;20209;-78
2021/08/02 07:02:49;;;;;;;7.37;3.73;;;15.40;99.90;;;;;;5017802;28;20175;-79
2021/08/02 07:05:14;;;;;;;8.23;4.00;;;15.50;99.90;;;;;;4990508;28;20191;-78
2021/08/02 07:07:40;;;;;;;7.23;3.70;;;15.70;99.90;;;;;;5015117;28;20694;-80
2021/08/02 07:10:06;;;;;;;8.53;3.63;;;16.00;99.90;;;;;;5003405;28;20207;-76
2021/08/02 07:12:35;;;;;;;6.07;3.60;;;16.10;99.90;;;;;;4998126;28;20176;-77
2021/08/02 07:15:01;;;;;;;8.73;4.37;;;16.20;99.90;;;;;;5048225;28;20256;-75
2021/08/02 07:17:26;;;;;;;5.80;3.50;;;16.20;99.90;;;;;;5018695;28;20183;-77
2021/08/02 07:19:52;;;;;;;7.67;3.80;;;16.20;99.90;;;;;;5016254;28;20215;-76
2021/08/02 07:22:17;;;;;;;6.83;3.50;;;16.40;99.90;;;;;;5050335;28;20193;-76
2021/08/02 07:24:43;;;;;;;6.37;3.50;;;16.50;99.90;;;;;;5050106;28;20175;-76
2021/08/02 07:27:08;;;;;;;6.70;3.67;;;16.60;99.90;;;;;;5015376;28;20555;-76
2021/08/02 07:29:34;;;;;;;7.67;3.70;;;16.70;99.90;;;;;;5015280;28;20290;-76
2021/08/02 07:31:59;;;;;;;6.13;3.50;;;16.80;99.90;;;;;;5013568;28;20179;-76
2021/08/02 07:34:25;;;;;;;5.80;3.00;;;16.80;99.90;;;;;;5031551;28;20182;-76
2021/08/02 07:36:50;;;;;;;8.93;3.90;;;16.90;99.90;;;;;;5035286;28;20187;-76
2021/08/02 07:39:16;;;;;;;5.87;3.97;;;16.80;99.90;;;;;;4998536;28;20214;-76
2021/08/02 07:41:41;;;;;;;8.00;3.40;;;16.70;99.90;;;;;;5030616;28;20322;-76
2021/08/02 07:44:07;;;;;;;6.50;3.20;;;16.70;99.90;;;;;;5029458;28;20222;-76
2021/08/02 07:46:33;;;;;;;7.23;3.20;;;16.80;99.90;;;;;;5029845;28;20218;-76
2021/08/02 07:48:58;;;;;;;3.93;2.90;;;16.70;99.90;;;;;;5015407;28;20242;-76
2021/08/02 07:51:24;;;;;;;5.50;3.03;;;16.80;99.90;;;;;;5032303;28;20255;-76
2021/08/02 07:53:49;;;;;;;5.90;2.97;;;17.10;99.90;;;;;;5032404;28;20175;-76
2021/08/02 07:56:15;;;;;;;5.27;2.90;;;17.50;99.90;;;;;;5031370;28;20193;-77
2021/08/02 07:58:41;;;;;;;5.97;2.90;;;17.70;99.90;;;;;;5030894;28;20205;-76
2021/08/02 08:01:06;;;;;;;6.67;2.60;;;18.30;99.90;;;;;;5019767;28;20190;-80
2021/08/02 08:03:32;;;;;;;4.60;2.80;;;18.80;99.90;;;;;;5049385;28;20576;-80
2021/08/02 08:05:57;;;;;;;4.23;2.27;;;19.00;99.90;;;;;;5053061;28;20186;-77
2021/08/02 08:08:23;;;;;;;3.73;2.00;;;18.90;99.90;;;;;;5051731;28;20193;-79
2021/08/02 08:10:48;;;;;;;4.70;2.20;;;18.70;99.90;;;;;;5051552;28;20182;-76
2021/08/02 08:13:14;;;;;;;3.73;2.10;;;18.60;99.90;;;;;;5018473;28;20179;-76
2021/08/02 08:15:39;;;;;;;4.33;2.10;;;18.40;99.90;;;;;;5051178;28;20178;-78
2021/08/02 08:18:05;;;;;;;4.53;2.37;;;18.30;99.90;;;;;;5018065;28;20260;-76
2021/08/02 08:20:31;;;;;;;6.17;2.70;;;18.20;99.90;;;;;;5034377;28;20267;-77
2021/08/02 08:22:56;;;;;;;3.90;2.50;;;18.10;99.90;;;;;;5017855;28;20684;-78
2021/08/02 08:25:22;;;;;;;5.80;2.53;;;17.90;99.90;;;;;;5034386;28;20190;-76
2021/08/02 08:27:49;;;;;;;5.83;2.40;;;17.80;99.90;;;;;;5013514;28;20606;-75
2021/08/02 08:30:15;;;;;;;5.07;2.13;;;17.70;99.90;;;;;;4987347;28;20270;-75
2021/08/02 08:32:40;;;;;;;8.13;2.20;;;17.70;99.90;;;;;;4994187;28;20589;-75
2021/08/02 08:35:06;;;;;;;5.63;2.20;;;17.70;99.90;;;;;;4976743;28;20171;-75
2021/08/02 08:37:32;;;;;;;4.40;2.10;;;17.70;99.90;;;;;;4993897;28;20172;-75
2021/08/02 08:39:57;;;;;;;5.07;1.90;;;17.70;99.90;;;;;;5009339;28;20203;-76
2021/08/02 08:42:23;;;;;;;5.30;1.80;;;18.00;99.90;;;;;;4992943;28;20188;-75
2021/08/02 08:44:48;;;;;;;4.00;1.60;;;18.30;99.90;;;;;;5009022;28;20229;-75
2021/08/02 08:47:14;;;;;;;5.13;1.53;;;18.50;99.90;;;;;;4992860;28;20180;-75
2021/08/02 08:49:40;;;;;;;4.43;1.70;;;18.70;99.90;;;;;;4994093;28;20215;-75
2021/08/02 08:52:06;;;;;;;6.50;1.73;;;18.70;99.90;;;;;;4994669;28;20669;-75
2021/08/02 08:54:32;;;;;;;3.60;1.40;;;18.70;99.90;;;;;;5012353;28;20206;-75
2021/08/02 08:56:58;;;;;;;4.03;1.30;;;18.60;99.90;;;;;;5012803;28;20643;-75
2021/08/02 08:59:23;;;;;;;4.43;1.40;;;18.50;99.90;;;;;;4998455;28;20204;-75
2021/08/02 09:02:02;;;;;;;3.33;1.23;;;18.40;99.90;;;;;;5015126;28;20180;-75
2021/08/02 09:04:29;;;;;;;4.30;1.23;;;18.50;99.90;;;;;;5015116;28;20171;-75
2021/08/02 09:06:57;;;;;;;4.87;1.20;;;18.50;99.90;;;;;;5014781;28;20179;-75
2021/08/02 09:09:35;;;;;;;5.07;1.50;;;18.60;99.90;;;;;;5015811;28;20236;-75
2021/08/02 09:12:05;;;;;;;3.20;1.20;;;18.70;99.90;;;;;;5015066;28;20651;-75
2021/08/02 09:14:30;;;;;;;4.27;1.30;;;18.90;99.90;;;;;;5014672;28;20600;-75
2021/08/02 09:16:57;;;;;;;4.47;1.20;;;19.20;99.90;;;;;;5014820;28;20179;-75
2021/08/02 09:19:23;;;;;;;4.47;1.50;;;19.60;99.90;;;;;;5014457;28;20238;-75
2021/08/02 09:21:51;;;;;;;3.27;1.10;;;19.60;99.90;;;;;;4982391;28;20678;-75
2021/08/02 09:24:28;;;;;;;4.03;1.20;;;19.30;99.90;;;;;;5001073;28;20670;-75
2021/08/02 09:26:53;;;;;;;3.17;1.20;;;19.10;99.90;;;;;;4984492;28;20727;-75
2021/08/02 09:29:29;;;;;;;2.00;1.10;;;18.90;99.90;;;;;;5014549;28;20219;-76
2021/08/02 09:31:55;;;;;;;2.30;1.00;;;18.70;99.90;;;;;;4998197;28;20191;-75
2021/08/02 09:34:23;;;;;;;3.43;1.00;;;18.50;99.90;;;;;;4998122;28;20270;-75
2021/08/02 09:36:54;;;;;;;4.00;1.10;;;18.50;99.90;;;;;;4998332;28;20187;-76
2021/08/02 09:39:20;;;;;;;1.70;0.90;;;18.60;99.90;;;;;;5001650;28;20206;-75
2021/08/02 09:41:46;;;;;;;1.73;1.00;;;18.70;99.90;;;;;;4984558;28;20184;-75
2021/08/02 09:44:22;;;;;;;3.43;1.20;;;18.70;99.90;;;;;;5000847;28;20180;-75
2021/08/02 09:46:54;;;;;;;3.33;1.00;;;18.70;99.90;;;;;;4999676;28;20187;-75
2021/08/02 09:49:20;;;;;;;3.63;1.17;;;18.90;99.90;;;;;;5015248;28;20717;-75
2021/08/02 09:51:45;;;;;;;2.50;1.20;;;19.10;99.90;;;;;;5014361;28;20179;-75
2021/08/02 09:54:27;;;;;;;3.50;0.90;;;19.40;99.90;;;;;;4998148;28;20287;-75
2021/08/02 09:56:52;;;;;;;2.90;0.70;;;19.60;99.90;;;;;;4998555;28;20179;-76
2021/08/02 09:59:19;;;;;;;4.23;1.07;;;19.90;99.90;;;;;;4997870;28;20720;-76
2021/08/02 10:01:49;;;;;;;4.73;0.90;;;20.10;99.90;;;;;;4981697;28;20278;-76
2021/08/02 10:04:15;;;;;;;1.70;1.00;;;20.40;99.90;;;;;;5014081;28;20262;-75
2021/08/02 10:06:41;;;;;;;2.90;0.90;;;20.60;99.90;;;;;;4998530;28;20258;-76
2021/08/02 10:09:07;;;;;;;6.47;1.00;;;20.70;99.90;;;;;;4996939;28;20637;-77
2021/08/02 10:11:33;;;;;;;2.13;0.80;;;20.80;99.90;;;;;;4981393;28;20242;-77
2021/08/02 10:13:58;;;;;;;2.53;0.87;;;20.80;99.90;;;;;;5013876;28;20184;-77
2021/08/02 10:16:26;;;;;;;4.13;1.10;;;20.60;99.90;;;;;;4997301;28;20176;-77
2021/08/02 10:18:52;;;;;;;3.97;1.30;;;20.60;99.90;;;;;;4997438;28;20214;-77
2021/08/02 10:21:19;;;;;;;2.67;1.00;;;20.50;99.90;;;;;;4997385;28;20179;-77
2021/08/02 10:23:44;;;;;;;2.63;0.83;;;20.40;99.90;;;;;;5006936;28;20187;-77
2021/08/02 10:26:28;;;;;;;3.90;1.00;;;20.30;99.90;;;;;;5022287;28;20237;-77
2021/08/02 10:28:58;;;;;;;1.93;1.10;;;20.00;99.90;;;;;;4982018;28;20585;-79
2021/08/02 10:31:27;;;;;;;1.80;0.80;;;20.00;99.90;;;;;;5003326;28;20230;-80
2021/08/02 10:33:53;;;;;;;2.50;1.00;;;19.90;99.90;;;;;;4986583;28;20190;-79
2021/08/02 10:36:20;;;;;;;3.30;1.00;;;19.80;99.90;;;;;;5021681;28;20186;-78
2021/08/02 10:38:50;;;;;;;2.40;0.83;;;19.70;99.90;;;;;;5035282;28;20198;-78
2021/08/02 10:41:26;;;;;;;3.33;1.00;;;19.60;99.90;;;;;;5035968;28;20225;-77
2021/08/02 10:43:52;;;;;;;3.27;1.00;;;19.60;99.90;;;;;;5011162;28;20194;-78
2021/08/02 10:46:22;;;;;;;1.47;0.73;;;19.60;99.90;;;;;;5021061;28;20191;-79
2021/08/02 10:48:48;;;;;;;3.00;1.20;;;19.60;99.90;;;;;;5042013;28;20610;-79
2021/08/02 10:51:16;;;;;;;3.93;0.90;;;19.60;99.90;;;;;;5031544;28;20179;-79
2021/08/02 10:53:41;;;;;;;3.00;0.97;;;19.60;99.90;;;;;;5023433;28;20183;-78
2021/08/02 10:56:07;;;;;;;2.87;0.80;;;19.60;99.90;;;;;;5024762;28;20172;-79
2021/08/02 10:58:36;;;;;;;3.20;1.10;;;19.50;99.90;;;;;;5013714;28;20206;-78
2021/08/02 11:01:12;;;;;;;3.10;1.00;;;19.40;99.90;;;;;;5016817;28;20646;-78
2021/08/02 11:03:39;;;;;;;2.67;0.90;;;19.40;99.90;;;;;;5017338;28;20631;-79
2021/08/02 11:06:06;;;;;;;3.10;0.93;;;19.60;99.90;;;;;;5016005;28;20278;-79
2021/08/02 11:08:35;;;;;;;3.13;0.80;;;19.80;99.90;;;;;;4997458;28;20826;-79
2021/08/02 11:11:03;;;;;;;2.83;1.00;;;20.10;99.90;;;;;;4984752;28;20294;-79
2021/08/02 11:13:29;;;;;;;5.57;0.90;;;20.30;99.90;;;;;;4982612;28;20179;-79
2021/08/02 11:15:55;;;;;;;1.57;0.90;;;20.40;99.90;;;;;;4981085;28;20186;-79
2021/08/02 11:18:25;;;;;;;3.13;0.83;;;20.60;99.90;;;;;;4996756;28;20215;-79
2021/08/02 11:20:50;;;;;;;1.67;0.70;;;20.70;99.90;;;;;;4999312;28;20612;-79
2021/08/02 11:23:16;;;;;;;3.87;1.00;;;20.80;99.90;;;;;;4998394;28;20210;-81
2021/08/02 11:25:42;;;;;;;2.20;0.73;;;20.80;99.90;;;;;;4997690;28;20184;-78
2021/08/02 11:28:07;;;;;;;1.77;0.80;;;20.90;99.90;;;;;;4997100;28;20571;-78
2021/08/02 11:30:33;;;;;;;2.20;1.00;;;21.10;99.90;;;;;;4997022;28;20643;-78
2021/08/02 11:32:58;;;;;;;4.00;1.07;;;21.30;99.90;;;;;;5013434;28;20175;-78
2021/08/02 11:35:32;;;;;;;1.83;1.00;;;21.40;99.90;;;;;;5012763;28;20186;-79
2021/08/02 11:37:57;;;;;;;2.73;0.90;;;21.40;99.90;;;;;;4996878;28;20176;-78
2021/08/02 11:40:26;;;;;;;6.37;1.23;;;21.50;99.90;;;;;;5007736;28;20206;-78
2021/08/02 11:42:52;;;;;;;2.50;0.90;;;21.50;99.90;;;;;;5016578;28;20578;-79
2021/08/02 11:45:19;;;;;;;3.07;0.97;;;21.30;99.90;;;;;;5032341;28;20191;-78
2021/08/02 11:47:45;;;;;;;2.43;0.87;;;21.30;99.90;;;;;;4999557;28;20189;-78
2021/08/02 11:50:11;;;;;;;1.87;0.90;;;21.10;99.90;;;;;;5015183;28;20312;-78
2021/08/02 11:52:37;;;;;;;2.63;0.80;;;20.90;99.90;;;;;;5014772;28;20179;-78
2021/08/02 11:55:06;;;;;;;3.47;0.80;;;20.70;99.90;;;;;;5018882;28;20172;-78
2021/08/02 11:57:32;;;;;;;3.20;1.00;;;20.50;99.90;;;;;;5037267;28;20191;-81
2021/08/02 12:00:11;;;;;;;2.47;0.80;;;20.20;99.90;;;;;;5048314;28;20203;-76
2021/08/02 12:02:37;;;;;;;2.70;1.10;;;20.10;99.90;;;;;;5049278;28;20234;-77
2021/08/02 12:05:04;;;;;;;2.83;0.93;;;20.00;99.90;;;;;;5031627;28;20237;-77
2021/08/02 12:07:33;;;;;;;2.13;0.80;;;19.80;99.90;;;;;;5014973;28;20189;-76
2021/08/02 12:10:21;;;;;;;2.33;0.70;;;19.70;99.90;;;;;;5024664;28;20207;-77
2021/08/02 12:13:07;;;;;;;1.90;0.90;;;19.60;99.90;;;;;;4996398;28;20229;-77
2021/08/02 12:15:33;;;;;;;2.40;0.90;;;20.00;99.90;;;;;;5028018;28;20175;-76
2021/08/02 12:17:59;;;;;;;2.27;0.80;;;20.20;99.90;;;;;;5031809;28;20183;-77
2021/08/02 12:20:38;;;;;;;4.70;0.87;;;20.50;99.90;;;;;;5031632;28;20211;-77
2021/08/02 12:23:05;;;;;;;2.07;0.90;;;20.80;99.90;;;;;;5015611;28;20175;-77
2021/08/02 12:25:35;;;;;;;1.47;1.00;;;20.90;99.90;;;;;;5033022;28;20183;-77
2021/08/02 12:28:00;;;;;;;2.03;0.90;;;20.80;99.90;;;;;;5049895;28;20634;-77
2021/08/02 12:30:27;;;;;;;5.00;1.07;;;20.80;99.90;;;;;;5033050;28;20198;-76
2021/08/02 12:32:52;;;;;;;4.40;1.20;;;20.70;99.90;;;;;;5025404;28;20237;-77
2021/08/02 12:35:18;;;;;;;2.47;1.00;;;20.60;99.90;;;;;;4995499;28;20180;-76
2021/08/02 12:37:44;;;;;;;5.83;1.37;;;20.40;99.90;;;;;;4995624;28;20183;-77
2021/08/02 12:40:11;;;;;;;2.67;1.00;;;20.30;99.90;;;;;;5013076;28;20226;-76
2021/08/02 12:42:40;;;;;;;2.07;0.97;;;20.30;99.90;;;;;;5015319;28;20187;-82
2021/08/02 12:45:07;;;;;;;1.50;0.77;;;20.40;99.90;;;;;;4981207;28;20274;-78
2021/08/02 12:47:32;;;;;;;3.33;1.00;;;20.50;99.90;;;;;;4997990;28;20551;-78